Time;durP1;ratioP1;P1;durP2;ratioP2;P2;SDS_P1;SDS_P2;PMS_P1;PMS_P2;Temp;Humidity;BMP_temperature;BMP_pressure;BME280_temperature;BME280_humidity;BME280_pressure;Samples;Min_cycle;Max_cycle;Signal;HPM_P1;HPM_P2
2021/06/25 00:00:09;;;;;;;20.40;16.30;;;11.10;99.90;;;;;;5023071;28;20129;-67
2021/06/25 00:02:35;;;;;;;18.67;16.65;;;11.00;99.90;;;;;;5023428;28;20133;-68
2021/06/25 00:05:01;;;;;;;25.52;18.15;;;10.90;99.90;;;;;;5023016;28;20029;-67
2021/06/25 00:07:27;;;;;;;25.63;18.58;;;11.00;99.90;;;;;;5023038;28;20096;-67
2021/06/25 00:09:53;;;;;;;23.00;18.77;;;11.00;99.90;;;;;;5022942;28;20046;-68
2021/06/25 00:12:18;;;;;;;23.75;16.52;;;10.90;99.90;;;;;;5023084;28;20042;-68
2021/06/25 00:14:44;;;;;;;21.90;17.42;;;10.90;99.90;;;;;;5022788;28;20046;-68
2021/06/25 00:17:10;;;;;;;21.23;17.20;;;10.90;99.90;;;;;;5023421;28;20460;-67
2021/06/25 00:19:36;;;;;;;19.23;17.00;;;11.00;99.90;;;;;;5023054;28;20046;-68
2021/06/25 00:22:02;;;;;;;18.08;16.10;;;11.00;99.90;;;;;;5023465;28;20042;-68
2021/06/25 00:24:27;;;;;;;18.27;16.13;;;11.00;99.90;;;;;;5023316;28;20042;-68
2021/06/25 00:26:54;;;;;;;21.38;17.02;;;11.00;99.90;;;;;;5023264;28;20057;-67
2021/06/25 00:29:19;;;;;;;22.15;18.15;;;10.90;99.90;;;;;;5022827;28;20049;-67
2021/06/25 00:31:46;;;;;;;23.50;18.25;;;10.80;99.90;;;;;;5023090;28;20133;-68
2021/06/25 00:34:12;;;;;;;20.52;16.80;;;10.90;99.90;;;;;;5023240;28;20045;-68
2021/06/25 00:36:38;;;;;;;21.20;16.25;;;10.80;99.90;;;;;;5022959;28;20056;-67
2021/06/25 00:39:04;;;;;;;21.42;16.85;;;10.70;99.90;;;;;;5022797;28;20077;-67
2021/06/25 00:41:30;;;;;;;20.17;15.73;;;10.60;99.90;;;;;;5023568;28;20045;-67
2021/06/25 00:43:56;;;;;;;18.02;15.27;;;10.60;99.90;;;;;;5005548;28;20053;-68
2021/06/25 00:46:22;;;;;;;22.27;17.40;;;10.50;99.90;;;;;;5022407;28;20056;-68
2021/06/25 00:48:48;;;;;;;18.52;16.20;;;10.40;99.90;;;;;;5023618;28;20375;-68
2021/06/25 00:51:17;;;;;;;19.08;15.98;;;10.50;99.90;;;;;;5023480;28;20609;-68
2021/06/25 00:53:43;;;;;;;22.65;16.98;;;10.40;99.90;;;;;;5022954;28;20049;-68
2021/06/25 00:56:13;;;;;;;20.58;16.20;;;10.30;99.90;;;;;;5023005;28;20046;-68
2021/06/25 00:58:39;;;;;;;21.20;16.38;;;10.30;99.90;;;;;;5024705;28;20437;-68
2021/06/25 01:01:05;;;;;;;21.60;18.15;;;10.30;99.90;;;;;;5022976;28;20050;-67
2021/06/25 01:03:33;;;;;;;25.48;18.77;;;10.20;99.90;;;;;;5023546;28;20054;-67
2021/06/25 01:05:59;;;;;;;24.25;19.35;;;10.20;99.90;;;;;;5026547;28;20053;-67
2021/06/25 01:08:26;;;;;;;23.70;17.02;;;10.20;99.90;;;;;;5026949;28;20069;-67
2021/06/25 01:10:54;;;;;;;22.98;18.30;;;10.20;99.90;;;;;;5026236;28;20054;-68
2021/06/25 01:13:20;;;;;;;21.90;17.50;;;10.20;99.90;;;;;;5020535;28;20050;-68
2021/06/25 01:15:46;;;;;;;28.50;18.17;;;10.10;99.90;;;;;;5025773;28;20116;-68
2021/06/25 01:18:12;;;;;;;27.17;18.30;;;10.00;99.90;;;;;;5020034;28;20046;-67
2021/06/25 01:20:38;;;;;;;22.30;17.15;;;10.00;99.90;;;;;;5026489;28;20046;-68
2021/06/25 01:23:04;;;;;;;28.67;20.55;;;9.90;99.90;;;;;;5026415;28;20053;-68
2021/06/25 01:25:36;;;;;;;28.92;20.45;;;9.80;99.90;;;;;;5018177;28;20058;-68
2021/06/25 01:28:12;;;;;;;29.42;22.80;;;9.80;99.90;;;;;;5021554;28;20046;-68
2021/06/25 01:30:43;;;;;;;35.45;23.20;;;10.00;99.90;;;;;;5025936;28;20048;-68
2021/06/25 01:33:12;;;;;;;44.55;25.50;;;10.10;99.90;;;;;;5025042;28;20041;-68
2021/06/25 01:35:39;;;;;;;40.40;25.42;;;10.10;99.90;;;;;;5015577;28;20038;-67
2021/06/25 01:38:06;;;;;;;35.17;23.70;;;10.10;99.90;;;;;;5026463;28;20048;-67
2021/06/25 01:40:32;;;;;;;47.30;27.97;;;10.00;99.90;;;;;;5013697;28;20050;-67
2021/06/25 01:43:00;;;;;;;52.30;29.60;;;10.00;99.90;;;;;;5026256;28;20816;-68
2021/06/25 01:45:28;;;;;;;39.80;24.67;;;10.10;99.90;;;;;;5025797;28;20489;-67
2021/06/25 01:47:54;;;;;;;54.78;29.42;;;10.10;99.90;;;;;;5026083;28;20100;-67
2021/06/25 01:50:26;;;;;;;44.63;27.92;;;10.10;99.90;;;;;;5025908;28;20094;-67
2021/06/25 01:52:57;;;;;;;37.33;24.13;;;10.10;99.90;;;;;;5025809;28;20068;-67
2021/06/25 01:55:24;;;;;;;37.92;25.50;;;10.00;99.90;;;;;;5025638;28;20046;-67
2021/06/25 01:57:50;;;;;;;38.07;23.20;;;10.00;99.90;;;;;;5025928;28;20080;-67
2021/06/25 02:00:17;;;;;;;45.03;27.15;;;10.00;99.90;;;;;;5025402;28;20062;-67
2021/06/25 02:02:43;;;;;;;31.65;24.23;;;10.00;99.90;;;;;;5011269;28;20054;-67
2021/06/25 02:05:10;;;;;;;45.05;26.00;;;9.90;99.90;;;;;;5025473;28;20037;-67
2021/06/25 02:07:36;;;;;;;38.20;26.23;;;10.00;99.90;;;;;;5025870;28;20057;-67
2021/06/25 02:10:14;;;;;;;47.83;28.13;;;10.00;99.90;;;;;;5023312;28;20050;-67
2021/06/25 02:12:41;;;;;;;39.73;26.57;;;10.00;99.90;;;;;;5015577;28;20070;-67
2021/06/25 02:15:08;;;;;;;36.05;24.83;;;10.00;99.90;;;;;;5015966;28;20050;-66
2021/06/25 02:17:34;;;;;;;36.53;24.58;;;9.90;99.90;;;;;;5025051;28;20490;-66
2021/06/25 02:20:00;;;;;;;45.72;27.33;;;9.80;99.90;;;;;;5025288;28;20069;-67
2021/06/25 02:22:26;;;;;;;41.42;26.15;;;9.80;99.90;;;;;;5025247;28;20045;-68
2021/06/25 02:24:52;;;;;;;42.45;25.63;;;9.70;99.90;;;;;;5025468;28;20037;-67
2021/06/25 02:27:17;;;;;;;35.08;23.75;;;9.70;99.90;;;;;;5020158;28;20069;-67
2021/06/25 02:29:43;;;;;;;45.05;26.58;;;9.70;99.90;;;;;;5019737;28;20057;-68
2021/06/25 02:32:09;;;;;;;40.33;24.88;;;9.60;99.90;;;;;;5025249;28;20054;-66
2021/06/25 02:34:35;;;;;;;39.53;25.20;;;9.60;99.90;;;;;;5025557;28;20042;-67
2021/06/25 02:37:01;;;;;;;44.00;27.58;;;9.70;99.90;;;;;;5010739;28;20057;-66
2021/06/25 02:39:27;;;;;;;39.47;26.15;;;9.60;99.90;;;;;;5017346;28;20046;-66
2021/06/25 02:41:53;;;;;;;36.88;25.45;;;9.70;99.90;;;;;;5025091;28;20050;-66
2021/06/25 02:44:19;;;;;;;43.42;26.13;;;9.60;99.90;;;;;;5019892;28;20309;-67
2021/06/25 02:46:44;;;;;;;37.92;25.17;;;9.50;99.90;;;;;;5015594;28;20120;-67
2021/06/25 02:49:10;;;;;;;38.20;24.23;;;9.40;99.90;;;;;;5024970;28;20077;-66
2021/06/25 02:51:36;;;;;;;45.75;26.48;;;9.40;99.90;;;;;;5025142;28;20121;-67
2021/06/25 02:54:03;;;;;;;40.58;26.00;;;9.40;99.90;;;;;;5024927;28;20057;-66
2021/06/25 02:56:29;;;;;;;41.67;26.48;;;9.40;99.90;;;;;;5024833;28;20484;-66
2021/06/25 02:58:55;;;;;;;35.45;23.90;;;9.40;99.90;;;;;;5024375;28;20042;-68
2021/06/25 03:01:21;;;;;;;45.40;27.27;;;9.30;99.90;;;;;;5023915;28;20045;-68
2021/06/25 03:03:47;;;;;;;47.65;28.80;;;9.20;99.90;;;;;;5024940;28;20057;-67
2021/06/25 03:06:14;;;;;;;51.70;29.98;;;9.30;99.90;;;;;;5024371;28;20045;-67
2021/06/25 03:08:40;;;;;;;51.20;29.73;;;9.30;99.90;;;;;;5024644;28;20050;-67
2021/06/25 03:11:05;;;;;;;50.20;29.20;;;9.30;99.90;;;;;;5024481;28;20068;-67
2021/06/25 03:13:32;;;;;;;54.08;30.75;;;9.30;99.90;;;;;;5025493;28;20088;-67
2021/06/25 03:15:58;;;;;;;58.22;32.72;;;9.30;99.90;;;;;;5023896;28;20490;-67
2021/06/25 03:18:24;;;;;;;59.38;32.45;;;9.30;99.90;;;;;;5020111;28;20057;-66
2021/06/25 03:20:50;;;;;;;60.88;34.13;;;9.40;99.90;;;;;;5011747;28;20046;-67
2021/06/25 03:23:17;;;;;;;63.10;33.42;;;9.30;99.90;;;;;;5016519;28;20134;-67
2021/06/25 03:25:43;;;;;;;63.75;33.75;;;9.40;99.90;;;;;;5024550;28;20041;-67
2021/06/25 03:28:09;;;;;;;66.00;33.05;;;9.40;99.90;;;;;;5023966;28;20111;-67
2021/06/25 03:30:35;;;;;;;58.63;32.80;;;9.40;99.90;;;;;;5023507;28;20042;-67
2021/06/25 03:33:01;;;;;;;56.80;32.70;;;9.60;99.90;;;;;;5024530;28;20054;-67
2021/06/25 03:35:28;;;;;;;68.95;35.03;;;9.60;99.90;;;;;;5024149;28;20478;-67
2021/06/25 03:37:54;;;;;;;61.38;33.22;;;9.50;99.90;;;;;;5024481;28;20445;-67
2021/06/25 03:40:20;;;;;;;62.55;30.45;;;9.50;99.90;;;;;;5024044;28;20100;-67
2021/06/25 03:42:46;;;;;;;51.67;30.50;;;9.50;99.90;;;;;;5023831;28;20042;-68
2021/06/25 03:45:14;;;;;;;53.05;30.67;;;9.50;99.90;;;;;;5023627;28;20114;-67
2021/06/25 03:47:40;;;;;;;50.17;28.17;;;9.60;99.90;;;;;;5023902;28;20065;-68
2021/06/25 03:50:07;;;;;;;45.13;27.15;;;9.70;99.90;;;;;;5024214;28;20073;-67
2021/06/25 03:52:33;;;;;;;47.90;28.25;;;9.80;99.90;;;;;;5023655;28;20171;-67
2021/06/25 03:54:59;;;;;;;47.33;28.60;;;9.90;99.90;;;;;;5023946;28;20512;-67
2021/06/25 03:57:25;;;;;;;41.10;25.77;;;9.90;99.90;;;;;;5020479;28;20043;-67
2021/06/25 03:59:51;;;;;;;46.60;28.35;;;9.90;99.90;;;;;;5012873;28;20052;-67
2021/06/25 04:02:16;;;;;;;42.80;26.45;;;9.90;99.90;;;;;;5023779;28;20080;-67
2021/06/25 04:04:42;;;;;;;32.03;22.15;;;10.10;99.90;;;;;;5023810;28;20069;-66
2021/06/25 04:07:08;;;;;;;34.17;21.90;;;10.20;99.90;;;;;;5023827;28;20050;-67
2021/06/25 04:09:34;;;;;;;34.40;23.80;;;10.20;99.90;;;;;;5023533;28;20502;-68
2021/06/25 04:12:01;;;;;;;31.80;23.63;;;10.40;99.90;;;;;;5015427;28;20413;-67
2021/06/25 04:14:28;;;;;;;35.15;24.85;;;10.40;99.90;;;;;;5023825;28;20058;-68
2021/06/25 04:16:54;;;;;;;32.42;23.05;;;10.40;99.90;;;;;;5023594;28;20088;-67
2021/06/25 04:19:20;;;;;;;36.35;23.90;;;10.40;99.90;;;;;;5012095;28;20042;-67
2021/06/25 04:21:46;;;;;;;24.65;20.02;;;10.60;99.90;;;;;;5017767;28;20046;-67
2021/06/25 04:24:14;;;;;;;28.00;19.92;;;10.60;99.90;;;;;;5020758;28;20045;-67
2021/06/25 04:26:41;;;;;;;22.58;17.52;;;10.60;99.90;;;;;;5023349;28;20410;-68
2021/06/25 04:29:12;;;;;;;26.00;19.30;;;10.60;99.90;;;;;;5015139;28;20122;-67
2021/06/25 04:31:47;;;;;;;27.23;19.08;;;10.70;99.90;;;;;;5019384;28;20057;-68
2021/06/25 04:34:13;;;;;;;25.75;19.27;;;10.80;99.90;;;;;;5023154;28;20050;-67
2021/06/25 04:36:39;;;;;;;26.88;19.77;;;10.90;99.90;;;;;;5022770;28;20433;-68
2021/06/25 04:39:08;;;;;;;29.13;19.85;;;10.90;99.90;;;;;;5018181;28;20441;-67
2021/06/25 04:41:34;;;;;;;27.88;19.75;;;11.00;99.90;;;;;;5023264;28;20046;-67
2021/06/25 04:44:01;;;;;;;24.85;17.73;;;11.00;99.90;;;;;;5022832;28;20053;-67
2021/06/25 04:46:28;;;;;;;22.13;18.67;;;11.20;99.90;;;;;;5022620;28;20054;-68
2021/06/25 04:48:54;;;;;;;28.67;17.58;;;11.30;99.90;;;;;;5022680;28;20128;-68
2021/06/25 04:51:20;;;;;;;25.88;18.48;;;11.30;99.90;;;;;;5023458;28;20081;-67
2021/06/25 04:53:46;;;;;;;20.15;17.08;;;11.40;99.90;;;;;;5022926;28;20453;-67
2021/06/25 04:56:12;;;;;;;20.70;17.40;;;11.40;99.90;;;;;;5023332;28;20096;-67
2021/06/25 04:58:38;;;;;;;22.83;17.60;;;11.40;99.90;;;;;;5022926;28;20069;-67
2021/06/25 05:01:03;;;;;;;19.10;16.17;;;11.60;99.90;;;;;;5022776;28;20061;-67
2021/06/25 05:03:30;;;;;;;20.73;17.27;;;11.70;99.90;;;;;;5023342;28;20045;-67
2021/06/25 05:05:56;;;;;;;19.42;16.38;;;11.90;99.90;;;;;;5022867;28;20054;-68
2021/06/25 05:08:22;;;;;;;17.95;15.82;;;11.90;99.90;;;;;;5016454;28;20101;-68
2021/06/25 05:10:48;;;;;;;16.83;14.93;;;12.10;99.90;;;;;;5022566;28;20106;-67
2021/06/25 05:13:15;;;;;;;18.70;16.02;;;12.10;99.90;;;;;;5022744;28;20045;-68
2021/06/25 05:15:41;;;;;;;18.67;15.20;;;12.20;99.90;;;;;;5022646;28;20065;-69
2021/06/25 05:18:15;;;;;;;18.33;15.20;;;12.30;99.90;;;;;;5021808;28;20050;-67
2021/06/25 05:20:42;;;;;;;21.42;15.85;;;12.30;99.90;;;;;;5012170;28;20046;-67
2021/06/25 05:23:09;;;;;;;19.10;14.88;;;12.50;99.90;;;;;;5023146;28;20165;-67
2021/06/25 05:25:35;;;;;;;18.60;13.93;;;12.70;99.90;;;;;;5023191;28;20096;-68
2021/06/25 05:28:01;;;;;;;15.63;13.98;;;12.80;99.90;;;;;;5022737;28;20132;-68
2021/06/25 05:30:27;;;;;;;25.85;15.55;;;12.90;99.90;;;;;;5021966;28;20038;-68
2021/06/25 05:32:54;;;;;;;16.30;13.98;;;13.00;99.90;;;;;;5023655;28;20071;-68
2021/06/25 05:35:19;;;;;;;16.35;13.85;;;13.10;99.90;;;;;;5022877;28;20065;-68
2021/06/25 05:37:46;;;;;;;15.75;14.13;;;13.20;99.90;;;;;;5022593;28;20049;-68
2021/06/25 05:40:12;;;;;;;14.23;12.73;;;13.40;99.90;;;;;;5022173;28;20061;-68
2021/06/25 05:42:38;;;;;;;14.50;12.98;;;13.50;99.90;;;;;;5022926;28;20050;-67
2021/06/25 05:45:04;;;;;;;17.48;14.18;;;13.60;99.90;;;;;;5024223;28;20048;-68
2021/06/25 05:47:30;;;;;;;16.73;14.52;;;13.70;99.90;;;;;;5026491;28;20038;-68
2021/06/25 05:49:56;;;;;;;15.27;12.20;;;13.90;99.90;;;;;;5026007;28;20068;-69
2021/06/25 05:52:22;;;;;;;14.05;12.02;;;14.00;99.90;;;;;;5011831;28;20139;-67
2021/06/25 05:54:48;;;;;;;15.38;12.60;;;14.10;99.90;;;;;;5026144;28;20123;-68
2021/06/25 05:57:14;;;;;;;15.13;11.68;;;14.30;99.90;;;;;;5025990;28;20049;-68
2021/06/25 05:59:40;;;;;;;17.20;12.38;;;14.50;99.90;;;;;;5025608;28;20184;-68
2021/06/25 06:02:06;;;;;;;13.82;11.73;;;14.60;99.90;;;;;;5025637;28;20137;-68
2021/06/25 06:04:32;;;;;;;13.80;11.60;;;14.70;99.90;;;;;;5025566;28;20042;-67
2021/06/25 06:06:57;;;;;;;13.13;11.68;;;14.90;99.90;;;;;;5026202;28;20050;-68
2021/06/25 06:09:24;;;;;;;15.50;10.40;;;15.00;99.90;;;;;;5025407;28;20038;-68
2021/06/25 06:11:49;;;;;;;14.50;10.85;;;15.10;99.90;;;;;;5025938;28;20048;-68
2021/06/25 06:14:15;;;;;;;13.43;10.57;;;15.30;99.90;;;;;;5025346;28;20081;-67
2021/06/25 06:16:41;;;;;;;12.05;10.82;;;15.50;99.90;;;;;;5025380;28;20042;-68
2021/06/25 06:19:07;;;;;;;11.65;10.45;;;15.70;99.90;;;;;;5017211;28;20098;-68
2021/06/25 06:32:42;;;;;;;12.27;9.82;;;16.20;99.90;;;;;;5013898;28;20045;-68
2021/06/25 06:35:08;;;;;;;11.48;10.10;;;16.40;99.90;;;;;;5025317;28;20042;-68
2021/06/25 06:37:34;;;;;;;10.57;9.02;;;16.50;99.90;;;;;;5025730;28;20050;-68
2021/06/25 06:39:59;;;;;;;10.88;9.77;;;16.60;99.90;;;;;;5025281;28;20058;-68
2021/06/25 06:42:25;;;;;;;11.02;9.93;;;16.70;99.90;;;;;;5025169;28;20037;-68
2021/06/25 06:44:51;;;;;;;9.70;8.80;;;16.60;99.90;;;;;;5024475;28;20049;-67
2021/06/25 06:47:17;;;;;;;11.80;9.00;;;16.50;99.90;;;;;;5024795;28;20054;-68
2021/06/25 06:49:43;;;;;;;14.00;9.13;;;16.50;99.90;;;;;;5025277;28;20416;-68
2021/06/25 06:52:08;;;;;;;17.10;10.32;;;16.60;99.90;;;;;;5024977;28;20038;-68
2021/06/25 06:54:34;;;;;;;12.45;10.13;;;16.50;99.90;;;;;;5025330;28;20049;-67
2021/06/25 06:57:00;;;;;;;9.88;8.88;;;16.50;99.90;;;;;;5024711;28;20065;-68
2021/06/25 06:59:26;;;;;;;14.35;10.00;;;16.60;99.90;;;;;;5024618;28;20045;-68
2021/06/25 07:01:52;;;;;;;12.38;9.75;;;16.80;99.90;;;;;;5025207;28;20070;-68
2021/06/25 07:04:17;;;;;;;11.05;9.07;;;16.70;99.90;;;;;;5024777;28;20052;-68
2021/06/25 07:06:43;;;;;;;13.00;10.10;;;16.80;99.90;;;;;;5024967;28;20046;-67
2021/06/25 07:09:09;;;;;;;10.38;9.00;;;16.90;99.90;;;;;;5024803;28;20050;-68
2021/06/25 07:11:35;;;;;;;13.65;8.35;;;17.00;99.90;;;;;;5024827;28;20048;-68
2021/06/25 07:14:00;;;;;;;10.32;9.27;;;17.20;99.90;;;;;;5024779;28;20042;-68
2021/06/25 07:16:26;;;;;;;11.02;8.63;;;17.50;99.90;;;;;;5023930;28;20125;-68
2021/06/25 07:18:52;;;;;;;9.90;8.50;;;17.50;99.90;;;;;;5017034;28;20050;-67
2021/06/25 07:21:20;;;;;;;9.65;8.40;;;17.40;99.90;;;;;;5018519;28;20042;-68
2021/06/25 07:23:47;;;;;;;9.15;7.80;;;17.50;99.90;;;;;;5015103;28;20030;-68
2021/06/25 07:26:14;;;;;;;8.70;7.80;;;17.40;99.90;;;;;;5024587;28;20565;-69
2021/06/25 07:28:40;;;;;;;9.73;8.43;;;17.50;99.90;;;;;;5019677;28;20098;-68
2021/06/25 07:31:05;;;;;;;11.07;8.52;;;17.50;99.90;;;;;;5014612;28;20061;-68
2021/06/25 07:33:31;;;;;;;9.98;8.45;;;17.60;99.90;;;;;;5024038;28;20053;-68
2021/06/25 07:35:57;;;;;;;11.73;8.60;;;17.60;99.90;;;;;;5024212;28;20056;-68
2021/06/25 07:38:23;;;;;;;11.20;8.52;;;17.80;99.90;;;;;;5024192;28;20042;-68
2021/06/25 07:40:49;;;;;;;11.40;7.93;;;17.90;99.90;;;;;;5024042;28;20073;-68
2021/06/25 07:43:15;;;;;;;10.73;8.60;;;17.90;99.90;;;;;;5023843;28;20065;-68
2021/06/25 07:45:41;;;;;;;9.45;7.70;;;17.90;99.90;;;;;;5023547;28;20073;-68
2021/06/25 07:48:07;;;;;;;13.23;7.20;;;18.10;99.90;;;;;;5023773;28;20490;-68
2021/06/25 07:50:33;;;;;;;8.65;6.78;;;18.20;99.90;;;;;;5024044;28;20046;-68
2021/06/25 07:52:59;;;;;;;10.80;6.93;;;18.60;99.90;;;;;;5013382;28;20376;-67
2021/06/25 07:55:25;;;;;;;9.65;6.45;;;18.60;99.90;;;;;;5023954;28;20069;-68
2021/06/25 07:57:50;;;;;;;9.70;6.55;;;18.80;99.90;;;;;;5023892;28;20046;-67
2021/06/25 08:00:17;;;;;;;8.48;6.50;;;18.70;99.90;;;;;;5023043;28;20049;-67
2021/06/25 08:02:44;;;;;;;9.70;6.68;;;18.80;99.90;;;;;;5023726;28;20405;-68
2021/06/25 08:05:10;;;;;;;7.72;6.15;;;18.60;99.90;;;;;;5023592;28;20070;-67
2021/06/25 08:07:36;;;;;;;6.45;5.40;;;18.70;99.90;;;;;;5023103;28;20073;-68
2021/06/25 08:10:03;;;;;;;10.23;5.97;;;19.00;99.90;;;;;;5023979;28;20049;-67
2021/06/25 08:12:29;;;;;;;9.68;5.57;;;18.90;99.90;;;;;;5023422;28;20042;-67
2021/06/25 08:14:57;;;;;;;9.32;5.55;;;19.00;99.90;;;;;;5023133;28;20037;-67
2021/06/25 08:17:23;;;;;;;8.10;6.20;;;19.00;99.90;;;;;;5023615;28;20050;-69
2021/06/25 08:19:49;;;;;;;9.97;6.10;;;19.10;99.90;;;;;;5019031;28;20049;-67
2021/06/25 08:22:15;;;;;;;9.90;5.85;;;19.20;99.90;;;;;;5016167;28;20047;-67
2021/06/25 08:24:41;;;;;;;9.45;6.63;;;19.40;99.90;;;;;;5017788;28;20042;-68
2021/06/25 08:27:07;;;;;;;7.38;5.32;;;19.80;99.90;;;;;;5012893;28;20077;-69
2021/06/25 08:29:32;;;;;;;9.88;6.25;;;19.80;99.90;;;;;;5022864;28;20092;-68
2021/06/25 08:31:58;;;;;;;8.10;6.38;;;19.80;99.90;;;;;;5023159;28;20477;-68
2021/06/25 08:34:25;;;;;;;6.43;5.47;;;19.70;99.90;;;;;;5023525;28;20166;-68
2021/06/25 08:36:52;;;;;;;;;;;19.80;99.90;;;;;;5021568;28;20046;-68
2021/06/25 08:39:17;;;;;;;9.27;5.72;;;19.70;99.90;;;;;;5011781;28;19923;-68
2021/06/25 08:41:43;;;;;;;14.43;7.97;;;20.00;99.90;;;;;;5013404;28;20053;-67
2021/06/25 08:44:09;;;;;;;6.70;5.45;;;19.90;99.90;;;;;;5006306;28;20052;-68
2021/06/25 08:46:35;;;;;;;9.20;5.70;;;20.00;99.90;;;;;;5023288;28;20462;-67
2021/06/25 08:49:06;;;;;;;7.80;6.93;;;19.90;99.90;;;;;;5023018;28;20049;-67
2021/06/25 08:51:33;;;;;;;10.15;6.28;;;19.70;99.90;;;;;;5023323;28;20053;-67
2021/06/25 08:53:59;;;;;;;7.55;6.25;;;19.60;99.90;;;;;;5023067;28;20050;-67
2021/06/25 08:56:31;;;;;;;13.13;7.25;;;19.40;99.90;;;;;;5023389;28;20049;-68
2021/06/25 08:58:57;;;;;;;6.35;5.72;;;19.40;99.90;;;;;;5009399;28;20046;-69
2021/06/25 09:01:24;;;;;;;11.18;6.20;;;19.50;99.90;;;;;;5022355;28;20050;-68
2021/06/25 09:03:54;;;;;;;8.70;6.25;;;19.20;99.90;;;;;;5022733;28;20037;-67
2021/06/25 09:06:20;;;;;;;10.68;5.82;;;19.30;99.90;;;;;;5009684;28;20049;-68
2021/06/25 09:08:46;;;;;;;7.03;6.43;;;19.30;99.90;;;;;;5024110;28;20139;-68
2021/06/25 09:11:23;;;;;;;7.63;6.00;;;19.20;99.90;;;;;;5022871;28;20046;-68
2021/06/25 09:14:04;;;;;;;7.38;6.68;;;19.10;99.90;;;;;;5023146;28;20096;-68
2021/06/25 09:16:36;;;;;;;12.90;6.07;;;19.10;99.90;;;;;;5014459;28;20038;-67
2021/06/25 09:19:12;;;;;;;8.23;6.03;;;19.00;99.90;;;;;;5018133;28;20056;-68
2021/06/25 09:21:43;;;;;;;5.35;4.88;;;19.00;99.90;;;;;;5035952;28;20065;-68
2021/06/25 09:24:25;;;;;;;8.45;5.82;;;19.00;99.90;;;;;;5025164;28;20050;-68
2021/06/25 09:26:58;;;;;;;8.93;5.55;;;19.20;99.90;;;;;;5026726;28;20038;-68
2021/06/25 09:29:27;;;;;;;8.00;6.00;;;19.30;99.90;;;;;;5026879;28;20079;-68
2021/06/25 09:32:02;;;;;;;8.98;5.85;;;19.10;99.90;;;;;;5026581;28;20042;-67
2021/06/25 09:34:45;;;;;;;7.82;5.40;;;19.30;99.90;;;;;;5026718;28;20501;-68
2021/06/25 09:37:13;;;;;;;11.57;5.40;;;19.50;99.90;;;;;;5025398;28;20064;-68
2021/06/25 09:40:04;;;;;;;6.68;5.97;;;19.60;99.90;;;;;;5027049;28;20105;-68
2021/06/25 09:42:30;;;;;;;9.50;5.63;;;19.60;99.90;;;;;;5008233;28;20057;-69
2021/06/25 09:44:56;;;;;;;7.80;5.35;;;19.90;99.90;;;;;;5025740;28;20050;-68
2021/06/25 09:47:30;;;;;;;10.05;6.25;;;19.70;99.90;;;;;;5026107;28;20065;-68
2021/06/25 09:50:12;;;;;;;10.93;5.25;;;19.80;99.90;;;;;;5018217;28;20417;-68
2021/06/25 09:52:51;;;;;;;8.02;4.95;;;20.00;99.90;;;;;;5026249;28;20045;-68
2021/06/25 09:55:56;;;;;;;8.93;6.03;;;20.10;99.90;;;;;;5026347;28;20093;-68
2021/06/25 10:01:21;;;;;;;6.63;4.93;;;19.90;99.90;;;;;;5025618;28;20517;-68
2021/06/25 10:04:02;;;;;;;6.90;5.28;;;20.00;99.90;;;;;;5026028;28;20053;-68
2021/06/25 10:06:31;;;;;;;9.45;5.78;;;20.30;99.90;;;;;;5017271;28;20497;-68
2021/06/25 10:08:58;;;;;;;8.75;5.68;;;20.10;99.90;;;;;;5025646;28;20076;-68
2021/06/25 10:11:29;;;;;;;10.18;5.95;;;20.00;99.90;;;;;;5025963;28;20045;-67
2021/06/25 10:13:57;;;;;;;8.82;5.70;;;20.10;99.90;;;;;;5025692;28;20056;-68
2021/06/25 10:16:24;;;;;;;7.75;5.60;;;20.30;99.90;;;;;;5025214;28;20049;-68
2021/06/25 10:18:55;;;;;;;9.00;7.07;;;20.50;99.90;;;;;;5018454;28;20065;-68
2021/06/25 10:21:24;;;;;;;8.40;6.30;;;20.50;99.90;;;;;;5019919;28;20045;-69
2021/06/25 10:23:53;;;;;;;11.25;6.88;;;20.60;98.90;;;;;;5025591;28;20046;-69
2021/06/25 10:26:20;;;;;;;9.13;6.45;;;20.60;98.50;;;;;;5025094;28;20066;-69
2021/06/25 10:28:47;;;;;;;11.48;7.68;;;21.00;99.20;;;;;;5025891;28;20042;-69
2021/06/25 10:31:14;;;;;;;;;;;21.10;99.30;;;;;;5025471;28;20045;-68
2021/06/25 10:33:41;;;;;;;7.47;6.47;;;21.10;96.90;;;;;;5025282;28;19922;-68
2021/06/25 10:36:10;;;;;;;11.65;7.45;;;21.10;98.10;;;;;;5025400;28;20077;-68
2021/06/25 10:38:38;;;;;;;8.73;7.03;;;21.40;96.90;;;;;;5025267;28;20042;-68
2021/06/25 10:41:06;;;;;;;9.20;7.80;;;21.60;97.60;;;;;;5025184;28;20050;-69
2021/06/25 10:43:46;;;;;;;9.52;6.53;;;21.70;96.80;;;;;;5024984;28;20080;-69
2021/06/25 10:46:38;;;;;;;9.88;6.90;;;22.10;97.00;;;;;;5024562;28;20114;-69
2021/06/25 10:49:12;;;;;;;11.57;7.53;;;22.50;94.90;;;;;;5012517;28;20060;-69
2021/06/25 10:51:40;;;;;;;10.02;6.90;;;22.20;93.60;;;;;;5024550;28;20038;-69
2021/06/25 10:54:16;;;;;;;11.93;6.97;;;22.20;93.10;;;;;;5024686;28;20064;-69
2021/06/25 10:57:02;;;;;;;9.90;7.10;;;22.30;94.50;;;;;;5025491;28;20037;-69
2021/06/25 10:59:30;;;;;;;11.20;7.00;;;22.30;94.40;;;;;;5013096;28;20038;-69
2021/06/25 11:02:09;;;;;;;11.60;6.63;;;22.20;94.10;;;;;;5024739;28;20077;-69
2021/06/25 11:04:35;;;;;;;11.13;7.63;;;22.00;93.40;;;;;;5007871;28;20050;-69
2021/06/25 11:07:19;;;;;;;11.23;6.45;;;21.90;92.10;;;;;;5017171;28;20044;-70
2021/06/25 11:10:00;;;;;;;9.68;6.85;;;22.00;94.70;;;;;;5014498;28;20049;-70
2021/06/25 11:12:29;;;;;;;10.77;6.82;;;21.90;93.50;;;;;;5024178;28;20073;-68
2021/06/25 11:15:17;;;;;;;10.27;7.28;;;21.60;92.60;;;;;;5023196;28;20045;-69
2021/06/25 11:17:55;;;;;;;9.13;6.18;;;21.80;93.90;;;;;;5024354;28;20406;-69
2021/06/25 11:20:46;;;;;;;9.48;6.75;;;22.00;94.00;;;;;;5011775;28;20115;-69
2021/06/25 11:23:17;;;;;;;11.90;7.80;;;22.20;93.00;;;;;;5020151;28;20045;-70
2021/06/25 11:25:51;;;;;;;11.15;8.15;;;22.10;94.00;;;;;;5024290;28;20044;-70
2021/06/25 11:28:40;;;;;;;12.32;8.32;;;22.10;93.40;;;;;;5023904;28;20235;-69
2021/06/25 11:31:07;;;;;;;;;;;22.10;93.30;;;;;;5023939;28;20056;-70
2021/06/25 11:33:52;;;;;;;9.23;7.72;;;22.10;93.50;;;;;;5024020;28;19925;-70
2021/06/25 11:36:28;;;;;;;12.95;8.48;;;22.50;91.90;;;;;;5023546;28;20065;-71
2021/06/25 11:39:02;;;;;;;13.55;8.60;;;22.30;91.70;;;;;;5025045;28;20041;-70
2021/06/25 11:41:36;;;;;;;10.38;8.35;;;22.60;94.10;;;;;;5012099;28;20042;-69
2021/06/25 11:44:13;;;;;;;10.75;9.38;;;22.70;94.30;;;;;;5024595;28;20054;-69
2021/06/25 11:46:50;;;;;;;11.48;9.35;;;23.00;94.40;;;;;;5024784;28;20056;-69
2021/06/25 11:49:16;;;;;;;16.15;10.52;;;23.40;92.80;;;;;;5009279;28;20113;-69
2021/06/25 11:51:43;;;;;;;13.73;9.63;;;23.50;91.60;;;;;;5024914;28;20049;-69
2021/06/25 11:54:12;;;;;;;13.63;10.07;;;23.60;90.20;;;;;;5023480;28;20616;-70
2021/06/25 11:56:43;;;;;;;16.20;9.90;;;23.60;90.30;;;;;;5024078;28;20062;-69
2021/06/25 11:59:09;;;;;;;12.40;10.77;;;23.90;90.50;;;;;;5023722;28;20041;-69
2021/06/25 12:01:56;;;;;;;13.27;10.15;;;24.00;89.20;;;;;;5014400;28;20107;-69
2021/06/25 12:04:48;;;;;;;15.27;10.02;;;24.30;90.80;;;;;;5020083;28;20062;-70
2021/06/25 12:07:17;;;;;;;11.38;9.40;;;24.30;87.10;;;;;;5017767;28;20053;-69
2021/06/25 12:09:52;;;;;;;12.38;10.10;;;24.50;90.20;;;;;;5023863;28;20091;-69
2021/06/25 12:12:19;;;;;;;14.70;10.02;;;24.70;87.60;;;;;;5023791;28;20187;-69
2021/06/25 12:14:52;;;;;;;;;;;24.40;89.90;;;;;;5009970;28;20041;-70
2021/06/25 12:17:18;;;;;;;14.07;10.45;;;23.80;88.60;;;;;;5023609;28;19922;-69
2021/06/25 12:19:59;;;;;;;16.02;10.60;;;23.50;90.60;;;;;;5009691;28;20042;-70
2021/06/25 12:22:25;;;;;;;14.73;10.95;;;23.40;93.10;;;;;;5012367;28;20113;-71
2021/06/25 12:24:53;;;;;;;17.92;12.15;;;23.40;94.00;;;;;;5023668;28;20121;-69
2021/06/25 12:27:33;;;;;;;14.48;10.35;;;23.50;94.20;;;;;;5024376;28;20126;-70
2021/06/25 12:30:13;;;;;;;15.10;11.90;;;23.70;94.00;;;;;;5017906;28;20046;-69
2021/06/25 12:32:39;;;;;;;17.52;12.48;;;23.50;94.70;;;;;;5012885;28;20049;-69
2021/06/25 12:35:05;;;;;;;20.70;12.60;;;23.50;95.30;;;;;;5023044;28;20045;-69
2021/06/25 12:37:47;;;;;;;17.88;13.50;;;23.30;95.30;;;;;;5023831;28;20040;-68
2021/06/25 12:40:34;;;;;;;14.38;12.90;;;22.90;96.00;;;;;;5018827;28;20134;-70
2021/06/25 12:43:00;;;;;;;16.40;13.77;;;23.00;96.20;;;;;;5023345;28;20053;-69
2021/06/25 12:45:35;;;;;;;20.50;13.48;;;22.80;96.60;;;;;;5008781;28;20050;-69
2021/06/25 12:48:06;;;;;;;18.27;14.95;;;22.70;95.50;;;;;;5023241;28;20054;-70
2021/06/25 12:50:32;;;;;;;18.17;15.70;;;22.60;96.30;;;;;;5023084;28;20045;-69
2021/06/25 12:53:13;;;;;;;18.35;13.25;;;22.90;96.40;;;;;;5022907;28;20062;-68
2021/06/25 12:55:39;;;;;;;18.33;13.38;;;23.10;97.00;;;;;;5026729;28;20061;-69